sensor_id;sensor_type;location;lat;lon;timestamp;pressure;altitude;pressure_sealevel;temperature;humidity
12949;BME280;6539;49.476;8.484;2023-11-21T00:00:46;99861.84;;;9.23;100.00
12949;BME280;6539;49.476;8.484;2023-11-21T00:03:33;99865.38;;;9.24;100.00
12949;BME280;6539;49.476;8.484;2023-11-21T00:06:21;99866.53;;;9.27;100.00
12949;BME280;6539;49.476;8.484;2023-11-21T00:09:09;99861.41;;;9.29;100.00
12949;BME280;6539;49.476;8.484;2023-11-21T00:11:57;99857.84;;;9.32;100.00
12949;BME280;6539;49.476;8.484;2023-11-21T00:14:45;99861.38;;;9.32;100.00
12949;BME280;6539;49.476;8.484;2023-11-21T00:17:31;99865.25;;;9.35;100.00
12949;BME280;6539;49.476;8.484;2023-11-21T00:20:20;99862.09;;;9.36;100.00
12949;BME280;6539;49.476;8.484;2023-11-21T00:23:08;99857.41;;;9.37;100.00
12949;BME280;6539;49.476;8.484;2023-11-21T00:25:55;99853.50;;;9.38;100.00
12949;BME280;6539;49.476;8.484;2023-11-21T00:28:45;99854.16;;;9.45;100.00
12949;BME280;6539;49.476;8.484;2023-11-21T00:31:31;99854.59;;;9.44;100.00
12949;BME280;6539;49.476;8.484;2023-11-21T00:34:17;99856.91;;;9.45;100.00
12949;BME280;6539;49.476;8.484;2023-11-21T00:37:03;99858.84;;;9.45;100.00
12949;BME280;6539;49.476;8.484;2023-11-21T00:39:52;99856.13;;;9.45;100.00
12949;BME280;6539;49.476;8.484;2023-11-21T00:42:38;99847.88;;;9.48;100.00
12949;BME280;6539;49.476;8.484;2023-11-21T00:45:27;99844.34;;;9.48;100.00
12949;BME280;6539;49.476;8.484;2023-11-21T00:48:13;99845.59;;;9.43;100.00
12949;BME280;6539;49.476;8.484;2023-11-21T00:50:59;99846.38;;;9.44;100.00
12949;BME280;6539;49.476;8.484;2023-11-21T00:53:48;99846.28;;;9.51;100.00
12949;BME280;6539;49.476;8.484;2023-11-21T00:56:34;99846.22;;;9.54;100.00
12949;BME280;6539;49.476;8.484;2023-11-21T00:59:22;99850.19;;;9.50;100.00
12949;BME280;6539;49.476;8.484;2023-11-21T01:02:09;99847.03;;;9.51;100.00
12949;BME280;6539;49.476;8.484;2023-11-21T01:04:56;99845.53;;;9.47;100.00
12949;BME280;6539;49.476;8.484;2023-11-21T01:07:45;99851.78;;;9.47;100.00
12949;BME280;6539;49.476;8.484;2023-11-21T01:10:31;99853.34;;;9.48;100.00
12949;BME280;6539;49.476;8.484;2023-11-21T01:13:18;99866.25;;;9.48;100.00
12949;BME280;6539;49.476;8.484;2023-11-21T01:16:05;99862.81;;;9.44;100.00
12949;BME280;6539;49.476;8.484;2023-11-21T01:18:52;99863.94;;;9.46;100.00
12949;BME280;6539;49.476;8.484;2023-11-21T01:21:43;99861.22;;;9.46;100.00
12949;BME280;6539;49.476;8.484;2023-11-21T01:24:29;99866.63;;;9.50;100.00
12949;BME280;6539;49.476;8.484;2023-11-21T01:27:15;99868.19;;;9.51;100.00
12949;BME280;6539;49.476;8.484;2023-11-21T01:30:05;99872.44;;;9.55;100.00
12949;BME280;6539;49.476;8.484;2023-11-21T01:32:55;99866.56;;;9.53;100.00
12949;BME280;6539;49.476;8.484;2023-11-21T01:35:42;99869.72;;;9.55;100.00
12949;BME280;6539;49.476;8.484;2023-11-21T01:38:28;99859.88;;;9.58;100.00
12949;BME280;6539;49.476;8.484;2023-11-21T01:41:15;99869.66;;;9.59;100.00
12949;BME280;6539;49.476;8.484;2023-11-21T01:44:01;99867.63;;;9.63;100.00
12949;BME280;6539;49.476;8.484;2023-11-21T01:46:48;99870.44;;;9.59;100.00
12949;BME280;6539;49.476;8.484;2023-11-21T01:49:39;99862.22;;;9.59;100.00
12949;BME280;6539;49.476;8.484;2023-11-21T01:52:26;99864.19;;;9.59;100.00
12949;BME280;6539;49.476;8.484;2023-11-21T01:55:17;99864.97;;;9.59;100.00
12949;BME280;6539;49.476;8.484;2023-11-21T01:58:06;99867.28;;;9.61;100.00
12949;BME280;6539;49.476;8.484;2023-11-21T02:00:53;99867.28;;;9.61;100.00
12949;BME280;6539;49.476;8.484;2023-11-21T02:03:44;99871.94;;;9.64;100.00
12949;BME280;6539;49.476;8.484;2023-11-21T02:06:33;99872.69;;;9.64;100.00
12949;BME280;6539;49.476;8.484;2023-11-21T02:09:27;99856.63;;;9.66;100.00
12949;BME280;6539;49.476;8.484;2023-11-21T02:12:15;99859.34;;;9.70;100.00
12949;BME280;6539;49.476;8.484;2023-11-21T02:15:03;99856.31;;;9.61;100.00
12949;BME280;6539;49.476;8.484;2023-11-21T02:17:55;99861.06;;;9.57;100.00
12949;BME280;6539;49.476;8.484;2023-11-21T02:20:44;99866.53;;;9.57;100.00
12949;BME280;6539;49.476;8.484;2023-11-21T02:23:30;99870.47;;;9.56;100.00
12949;BME280;6539;49.476;8.484;2023-11-21T02:26:16;99871.66;;;9.55;100.00
12949;BME280;6539;49.476;8.484;2023-11-21T02:29:06;99866.19;;;9.55;100.00
12949;BME280;6539;49.476;8.484;2023-11-21T02:31:56;99874.03;;;9.53;100.00
12949;BME280;6539;49.476;8.484;2023-11-21T02:34:42;99870.88;;;9.54;100.00
12949;BME280;6539;49.476;8.484;2023-11-21T02:37:29;99871.66;;;9.55;100.00
12949;BME280;6539;49.476;8.484;2023-11-21T02:40:20;99869.28;;;9.57;100.00
12949;BME280;6539;49.476;8.484;2023-11-21T02:43:06;99862.97;;;9.60;100.00
12949;BME280;6539;49.476;8.484;2023-11-21T02:45:55;99865.75;;;9.56;100.00
12949;BME280;6539;49.476;8.484;2023-11-21T02:48:41;99870.47;;;9.56;100.00
12949;BME280;6539;49.476;8.484;2023-11-21T02:51:35;99856.31;;;9.61;100.00
12949;BME280;6539;49.476;8.484;2023-11-21T02:54:21;99857.09;;;9.61;100.00
12949;BME280;6539;49.476;8.484;2023-11-21T02:57:12;99869.59;;;9.62;100.00
12949;BME280;6539;49.476;8.484;2023-11-21T03:00:01;99863.34;;;9.62;100.00
12949;BME280;6539;49.476;8.484;2023-11-21T03:02:49;99856.59;;;9.70;100.00
12949;BME280;6539;49.476;8.484;2023-11-21T03:05:35;99861.72;;;9.68;100.00
12949;BME280;6539;49.476;8.484;2023-11-21T03:08:22;99857.03;;;9.65;100.00
12949;BME280;6539;49.476;8.484;2023-11-21T03:11:09;99862.47;;;9.68;100.00
12949;BME280;6539;49.476;8.484;2023-11-21T03:14:01;99867.59;;;9.66;100.00
12949;BME280;6539;49.476;8.484;2023-11-21T03:16:48;99858.63;;;9.62;100.00
12949;BME280;6539;49.476;8.484;2023-11-21T03:19:35;99858.25;;;9.64;100.00
12949;BME280;6539;49.476;8.484;2023-11-21T03:22:23;99861.34;;;9.66;100.00
12949;BME280;6539;49.476;8.484;2023-11-21T03:25:09;99863.31;;;9.65;100.00
12949;BME280;6539;49.476;8.484;2023-11-21T03:28:03;99855.91;;;9.62;100.00
12949;BME280;6539;49.476;8.484;2023-11-21T03:30:49;99862.97;;;9.60;100.00
12949;BME280;6539;49.476;8.484;2023-11-21T03:33:38;99871.19;;;9.60;100.00
12949;BME280;6539;49.476;8.484;2023-11-21T03:36:24;99862.53;;;9.65;100.00
12949;BME280;6539;49.476;8.484;2023-11-21T03:39:11;99873.94;;;9.60;100.00
12949;BME280;6539;49.476;8.484;2023-11-21T03:42:02;99871.09;;;9.67;100.00
12949;BME280;6539;49.476;8.484;2023-11-21T03:44:48;99874.72;;;9.60;100.00
12949;BME280;6539;49.476;8.484;2023-11-21T03:47:34;99866.00;;;9.69;100.00
12949;BME280;6539;49.476;8.484;2023-11-21T03:50:22;99878.19;;;9.64;100.00
12949;BME280;6539;49.476;8.484;2023-11-21T03:53:11;99881.69;;;9.65;100.00
12949;BME280;6539;49.476;8.484;2023-11-21T03:56:02;99875.06;;;9.62;100.00
12949;BME280;6539;49.476;8.484;2023-11-21T03:58:51;99882.56;;;9.58;100.00
12949;BME280;6539;49.476;8.484;2023-11-21T04:01:37;99880.66;;;9.55;100.00
12949;BME280;6539;49.476;8.484;2023-11-21T04:04:23;99888.84;;;9.59;100.00
12949;BME280;6539;49.476;8.484;2023-11-21T04:07:09;99887.97;;;9.65;100.00
12949;BME280;6539;49.476;8.484;2023-11-21T04:09:55;99883.63;;;9.68;100.00
12949;BME280;6539;49.476;8.484;2023-11-21T04:12:44;99891.50;;;9.66;100.00
12949;BME280;6539;49.476;8.484;2023-11-21T04:15:31;99891.50;;;9.66;100.00
12949;BME280;6539;49.476;8.484;2023-11-21T04:18:22;99887.63;;;9.60;100.00
12949;BME280;6539;49.476;8.484;2023-11-21T04:21:12;99883.00;;;9.57;100.00
12949;BME280;6539;49.476;8.484;2023-11-21T04:23:58;99891.56;;;9.59;100.00
12949;BME280;6539;49.476;8.484;2023-11-21T04:26:45;99896.22;;;9.62;100.00
12949;BME280;6539;49.476;8.484;2023-11-21T04:29:31;99897.78;;;9.63;100.00
12949;BME280;6539;49.476;8.484;2023-11-21T04:32:17;99905.56;;;9.68;100.00
12949;BME280;6539;49.476;8.484;2023-11-21T04:35:03;99902.47;;;9.62;100.00
12949;BME280;6539;49.476;8.484;2023-11-21T04:37:54;99906.41;;;9.61;100.00
12949;BME280;6539;49.476;8.484;2023-11-21T04:40:43;99906.44;;;9.58;100.00
12949;BME280;6539;49.476;8.484;2023-11-21T04:43:33;99912.94;;;9.71;100.00
12949;BME280;6539;49.476;8.484;2023-11-21T04:46:22;99922.03;;;9.64;100.00
12949;BME280;6539;49.476;8.484;2023-11-21T04:49:10;99922.38;;;9.70;100.00
12949;BME280;6539;49.476;8.484;2023-11-21T04:51:56;99923.53;;;9.69;100.00
12949;BME280;6539;49.476;8.484;2023-11-21T04:54:45;99925.19;;;9.63;100.00
12949;BME280;6539;49.476;8.484;2023-11-21T04:57:31;99929.81;;;9.69;100.00
12949;BME280;6539;49.476;8.484;2023-11-21T05:00:17;99932.78;;;9.82;100.00
12949;BME280;6539;49.476;8.484;2023-11-21T05:03:07;99933.50;;;9.86;100.00
12949;BME280;6539;49.476;8.484;2023-11-21T05:05:55;99934.47;;;9.72;100.00
12949;BME280;6539;49.476;8.484;2023-11-21T05:08:44;99937.25;;;9.69;100.00
12949;BME280;6539;49.476;8.484;2023-11-21T05:11:30;99938.09;;;9.66;100.00
12949;BME280;6539;49.476;8.484;2023-11-21T05:14:21;99945.44;;;9.72;100.00
12949;BME280;6539;49.476;8.484;2023-11-21T05:17:07;99946.66;;;9.68;100.00
12949;BME280;6539;49.476;8.484;2023-11-21T05:19:53;99944.31;;;9.66;100.00
12949;BME280;6539;49.476;8.484;2023-11-21T05:22:42;99938.47;;;9.64;100.00
12949;BME280;6539;49.476;8.484;2023-11-21T05:25:30;99952.06;;;9.41;100.00
12949;BME280;6539;49.476;8.484;2023-11-21T05:28:18;99947.31;;;9.45;100.00
12949;BME280;6539;49.476;8.484;2023-11-21T05:31:04;99954.41;;;9.39;100.00
12949;BME280;6539;49.476;8.484;2023-11-21T05:33:52;99961.13;;;9.35;100.00
12949;BME280;6539;49.476;8.484;2023-11-21T05:36:38;99974.38;;;9.40;100.00
12949;BME280;6539;49.476;8.484;2023-11-21T05:39:27;99970.91;;;9.32;100.00
12949;BME280;6539;49.476;8.484;2023-11-21T05:42:18;99980.06;;;9.56;100.00
12949;BME280;6539;49.476;8.484;2023-11-21T05:45:04;99978.69;;;9.74;100.00
12949;BME280;6539;49.476;8.484;2023-11-21T05:47:59;99988.00;;;9.80;100.00
12949;BME280;6539;49.476;8.484;2023-11-21T05:50:45;99976.81;;;9.68;100.00
12949;BME280;6539;49.476;8.484;2023-11-21T05:53:32;99985.84;;;9.65;100.00
12949;BME280;6539;49.476;8.484;2023-11-21T05:56:18;99984.94;;;9.75;100.00
12949;BME280;6539;49.476;8.484;2023-11-21T05:59:04;99990.03;;;9.76;100.00
12949;BME280;6539;49.476;8.484;2023-11-21T06:01:52;99993.81;;;9.86;100.00
12949;BME280;6539;49.476;8.484;2023-11-21T06:04:44;100002.50;;;9.81;100.00
12949;BME280;6539;49.476;8.484;2023-11-21T06:07:32;99996.31;;;9.73;100.00
12949;BME280;6539;49.476;8.484;2023-11-21T06:10:21;100003.44;;;9.67;100.00
12949;BME280;6539;49.476;8.484;2023-11-21T06:13:10;100008.53;;;9.65;100.00
12949;BME280;6539;49.476;8.484;2023-11-21T06:15:56;100009.41;;;9.59;100.00
12949;BME280;6539;49.476;8.484;2023-11-21T06:18:45;100018.44;;;9.56;100.00
12949;BME280;6539;49.476;8.484;2023-11-21T06:21:34;100020.00;;;9.57;100.00
12949;BME280;6539;49.476;8.484;2023-11-21T06:24:24;100020.38;;;9.59;100.00
12949;BME280;6539;49.476;8.484;2023-11-21T06:27:13;100015.25;;;9.61;100.00
12949;BME280;6539;49.476;8.484;2023-11-21T06:30:00;100021.16;;;9.56;100.00
12949;BME280;6539;49.476;8.484;2023-11-21T06:32:48;100030.97;;;9.53;100.00
12949;BME280;6539;49.476;8.484;2023-11-21T06:35:40;100030.97;;;9.57;100.00
12949;BME280;6539;49.476;8.484;2023-11-21T06:38:29;100031.69;;;9.61;100.00
12949;BME280;6539;49.476;8.484;2023-11-21T06:41:20;100042.66;;;9.61;100.00
12949;BME280;6539;49.476;8.484;2023-11-21T06:44:06;100047.41;;;9.57;100.00
12949;BME280;6539;49.476;8.484;2023-11-21T06:46:58;100045.81;;;9.56;100.00
12949;BME280;6539;49.476;8.484;2023-11-21T06:49:44;100051.28;;;9.59;100.00
12949;BME280;6539;49.476;8.484;2023-11-21T06:52:33;100060.63;;;9.62;100.00
12949;BME280;6539;49.476;8.484;2023-11-21T06:55:19;100064.53;;;9.64;100.00
12949;BME280;6539;49.476;8.484;2023-11-21T06:58:05;100066.47;;;9.67;100.00
12949;BME280;6539;49.476;8.484;2023-11-21T07:00:53;100070.75;;;9.68;100.00
12949;BME280;6539;49.476;8.484;2023-11-21T07:03:39;100075.47;;;9.68;100.00
12949;BME280;6539;49.476;8.484;2023-11-21T07:06:28;100074.34;;;9.62;100.00
12949;BME280;6539;49.476;8.484;2023-11-21T07:09:14;100077.16;;;9.55;100.00
12949;BME280;6539;49.476;8.484;2023-11-21T07:12:03;100081.88;;;9.54;100.00
12949;BME280;6539;49.476;8.484;2023-11-21T07:14:49;100082.66;;;9.55;100.00
12949;BME280;6539;49.476;8.484;2023-11-21T07:17:36;100083.44;;;9.52;100.00
12949;BME280;6539;49.476;8.484;2023-11-21T07:20:25;100090.81;;;9.58;100.00
12949;BME280;6539;49.476;8.484;2023-11-21T07:23:13;100098.63;;;9.60;100.00
12949;BME280;6539;49.476;8.484;2023-11-21T07:26:02;100102.56;;;9.59;100.00
12949;BME280;6539;49.476;8.484;2023-11-21T07:28:48;100109.59;;;9.63;100.00
12949;BME280;6539;49.476;8.484;2023-11-21T07:31:37;100110.75;;;9.62;100.00
12949;BME280;6539;49.476;8.484;2023-11-21T07:34:24;100112.22;;;9.74;100.00
12949;BME280;6539;49.476;8.484;2023-11-21T07:37:10;100108.38;;;9.68;100.00
12949;BME280;6539;49.476;8.484;2023-11-21T07:39:56;100115.31;;;9.76;100.00
12949;BME280;6539;49.476;8.484;2023-11-21T07:42:42;100119.19;;;9.82;100.00
12949;BME280;6539;49.476;8.484;2023-11-21T07:45:28;100125.09;;;9.77;100.00
12949;BME280;6539;49.476;8.484;2023-11-21T07:48:19;100126.81;;;10.01;100.00
12949;BME280;6539;49.476;8.484;2023-11-21T07:51:10;100122.84;;;10.09;100.00
12949;BME280;6539;49.476;8.484;2023-11-21T07:53:56;100131.41;;;10.15;100.00
12949;BME280;6539;49.476;8.484;2023-11-21T07:56:42;100137.69;;;10.12;100.00
12949;BME280;6539;49.476;8.484;2023-11-21T07:59:33;100140.47;;;10.08;100.00
12949;BME280;6539;49.476;8.484;2023-11-21T08:02:20;100146.84;;;9.94;100.00
12949;BME280;6539;49.476;8.484;2023-11-21T08:05:09;100141.06;;;9.89;100.00
12949;BME280;6539;49.476;8.484;2023-11-21T08:07:56;100144.25;;;9.80;100.00
12949;BME280;6539;49.476;8.484;2023-11-21T08:10:44;100143.53;;;9.76;100.00
12949;BME280;6539;49.476;8.484;2023-11-21T08:13:34;100146.66;;;9.75;100.00
12949;BME280;6539;49.476;8.484;2023-11-21T08:16:20;100152.91;;;9.79;100.00
12949;BME280;6539;49.476;8.484;2023-11-21T08:19:06;100152.03;;;9.89;100.00
12949;BME280;6539;49.476;8.484;2023-11-21T08:21:54;100157.81;;;9.98;100.00
12949;BME280;6539;49.476;8.484;2023-11-21T08:24:42;100157.88;;;9.91;100.00
12949;BME280;6539;49.476;8.484;2023-11-21T08:27:28;100163.78;;;9.89;100.00
12949;BME280;6539;49.476;8.484;2023-11-21T08:30:17;100164.25;;;9.81;100.00
12949;BME280;6539;49.476;8.484;2023-11-21T08:33:05;100172.84;;;9.83;100.00
12949;BME280;6539;49.476;8.484;2023-11-21T08:35:56;100179.41;;;9.92;100.00
12949;BME280;6539;49.476;8.484;2023-11-21T08:38:47;100175.47;;;9.93;100.00
12949;BME280;6539;49.476;8.484;2023-11-21T08:41:34;100177.88;;;9.88;100.00
12949;BME280;6539;49.476;8.484;2023-11-21T08:44:20;100187.72;;;9.85;100.00
12949;BME280;6539;49.476;8.484;2023-11-21T08:47:07;100187.38;;;9.76;100.00
12949;BME280;6539;49.476;8.484;2023-11-21T08:49:53;100190.50;;;9.75;100.00
12949;BME280;6539;49.476;8.484;2023-11-21T08:52:39;100190.19;;;9.69;100.00
12949;BME280;6539;49.476;8.484;2023-11-21T08:55:26;100197.19;;;9.74;100.00
12949;BME280;6539;49.476;8.484;2023-11-21T08:58:19;100207.03;;;9.68;100.00
12949;BME280;6539;49.476;8.484;2023-11-21T09:01:05;100208.94;;;9.71;100.00
12949;BME280;6539;49.476;8.484;2023-11-21T09:03:53;100208.56;;;9.72;100.00
12949;BME280;6539;49.476;8.484;2023-11-21T09:06:42;100214.34;;;9.81;100.00
12949;BME280;6539;49.476;8.484;2023-11-21T09:09:28;100214.78;;;9.76;100.00
12949;BME280;6539;49.476;8.484;2023-11-21T09:12:18;100219.50;;;9.76;100.00
12949;BME280;6539;49.476;8.484;2023-11-21T09:15:11;100228.13;;;9.74;100.00
12949;BME280;6539;49.476;8.484;2023-11-21T09:17:57;100231.22;;;9.80;100.00
12949;BME280;6539;49.476;8.484;2023-11-21T09:20:46;100229.66;;;9.79;100.00
12949;BME280;6539;49.476;8.484;2023-11-21T09:23:32;100236.25;;;9.85;100.00
12949;BME280;6539;49.476;8.484;2023-11-21T09:26:22;100235.06;;;9.89;100.00
12949;BME280;6539;49.476;8.484;2023-11-21T09:29:08;100242.91;;;9.87;100.00
12949;BME280;6539;49.476;8.484;2023-11-21T09:31:55;100243.28;;;9.86;100.00
12949;BME280;6539;49.476;8.484;2023-11-21T09:34:43;100251.63;;;9.72;100.00
12949;BME280;6539;49.476;8.484;2023-11-21T09:37:31;100253.53;;;9.78;100.00
12949;BME280;6539;49.476;8.484;2023-11-21T09:40:22;100259.34;;;9.87;100.00
12949;BME280;6539;49.476;8.484;2023-11-21T09:43:17;100265.19;;;9.93;100.00
12949;BME280;6539;49.476;8.484;2023-11-21T09:46:09;100267.91;;;9.93;100.00
12949;BME280;6539;49.476;8.484;2023-11-21T09:49:02;100266.38;;;9.88;100.00
12949;BME280;6539;49.476;8.484;2023-11-21T09:51:55;100265.88;;;10.04;100.00
12949;BME280;6539;49.476;8.484;2023-11-21T09:54:46;100278.84;;;10.00;100.00
12949;BME280;6539;49.476;8.484;2023-11-21T09:57:33;100281.97;;;10.02;100.00
12949;BME280;6539;49.476;8.484;2023-11-21T10:00:23;100286.28;;;9.99;100.00
12949;BME280;6539;49.476;8.484;2023-11-21T10:03:14;100290.59;;;10.01;100.00
12949;BME280;6539;49.476;8.484;2023-11-21T10:06:01;100287.50;;;9.95;100.00
12949;BME280;6539;49.476;8.484;2023-11-21T10:08:51;100293.69;;;10.06;100.00
12949;BME280;6539;49.476;8.484;2023-11-21T10:11:46;100288.94;;;10.14;100.00
12949;BME280;6539;49.476;8.484;2023-11-21T10:14:37;100296.00;;;10.08;100.00
12949;BME280;6539;49.476;8.484;2023-11-21T10:17:29;100297.94;;;10.14;100.00
12949;BME280;6539;49.476;8.484;2023-11-21T10:20:25;100293.56;;;10.20;100.00
12949;BME280;6539;49.476;8.484;2023-11-21T10:23:12;100291.56;;;10.28;100.00
12949;BME280;6539;49.476;8.484;2023-11-21T10:26:02;100286.50;;;10.23;100.00
12949;BME280;6539;49.476;8.484;2023-11-21T10:29:02;100300.59;;;10.25;100.00
12949;BME280;6539;49.476;8.484;2023-11-21T10:31:51;100294.25;;;10.35;100.00
12949;BME280;6539;49.476;8.484;2023-11-21T10:34:37;100293.41;;;10.38;100.00
12949;BME280;6539;49.476;8.484;2023-11-21T10:37:23;100298.94;;;10.34;100.00
12949;BME280;6539;49.476;8.484;2023-11-21T10:40:11;100302.84;;;10.37;100.00
12949;BME280;6539;49.476;8.484;2023-11-21T10:43:09;100302.06;;;10.36;100.00
12949;BME280;6539;49.476;8.484;2023-11-21T10:46:02;100299.75;;;10.35;100.00
12949;BME280;6539;49.476;8.484;2023-11-21T10:48:55;100310.41;;;10.26;100.00
12949;BME280;6539;49.476;8.484;2023-11-21T10:51:48;100321.41;;;10.19;100.00
12949;BME280;6539;49.476;8.484;2023-11-21T10:54:37;100317.88;;;10.18;100.00
12949;BME280;6539;49.476;8.484;2023-11-21T10:57:27;100328.53;;;10.06;100.00
12949;BME280;6539;49.476;8.484;2023-11-21T11:00:19;100325.78;;;10.09;100.00
12949;BME280;6539;49.476;8.484;2023-11-21T11:03:08;100329.38;;;9.99;100.00
12949;BME280;6539;49.476;8.484;2023-11-21T11:06:00;100332.16;;;9.92;100.00
12949;BME280;6539;49.476;8.484;2023-11-21T11:08:51;100325.91;;;9.88;100.00
12949;BME280;6539;49.476;8.484;2023-11-21T11:11:39;100326.66;;;9.92;100.00
12949;BME280;6539;49.476;8.484;2023-11-21T11:14:27;100321.19;;;9.92;100.00
12949;BME280;6539;49.476;8.484;2023-11-21T11:17:19;100324.34;;;9.94;100.00
12949;BME280;6539;49.476;8.484;2023-11-21T11:20:12;100325.47;;;10.00;100.00
12949;BME280;6539;49.476;8.484;2023-11-21T11:26:34;100326.88;;;10.22;100.00
12949;BME280;6539;49.476;8.484;2023-11-21T11:32:40;100317.19;;;10.55;100.00
12949;BME280;6539;49.476;8.484;2023-11-21T11:38:32;100323.81;;;10.57;100.00
12949;BME280;6539;49.476;8.484;2023-11-21T11:41:31;100327.03;;;10.49;100.00
12949;BME280;6539;49.476;8.484;2023-11-21T11:47:33;100327.81;;;10.49;100.00
12949;BME280;6539;49.476;8.484;2023-11-21T11:50:25;100328.28;;;10.41;100.00
12949;BME280;6539;49.476;8.484;2023-11-21T11:53:15;100329.94;;;10.31;100.00
12949;BME280;6539;49.476;8.484;2023-11-21T11:56:31;100333.06;;;10.33;100.00
12949;BME280;6539;49.476;8.484;2023-11-21T11:59:20;100340.09;;;10.34;100.00
12949;BME280;6539;49.476;8.484;2023-11-21T12:02:06;100339.75;;;10.32;100.00
12949;BME280;6539;49.476;8.484;2023-11-21T12:04:58;100336.38;;;10.58;100.00
12949;BME280;6539;49.476;8.484;2023-11-21T12:07:56;100345.34;;;10.62;100.00
12949;BME280;6539;49.476;8.484;2023-11-21T12:10:43;100340.44;;;10.84;100.00
12949;BME280;6539;49.476;8.484;2023-11-21T12:13:30;100339.16;;;10.92;100.00
12949;BME280;6539;49.476;8.484;2023-11-21T12:16:16;100343.72;;;11.06;100.00
12949;BME280;6539;49.476;8.484;2023-11-21T12:19:05;100344.41;;;11.13;100.00
12949;BME280;6539;49.476;8.484;2023-11-21T12:21:51;100349.13;;;11.13;100.00
12949;BME280;6539;49.476;8.484;2023-11-21T12:24:37;100350.69;;;11.14;100.00
12949;BME280;6539;49.476;8.484;2023-11-21T12:27:27;100354.09;;;11.25;100.00
12949;BME280;6539;49.476;8.484;2023-11-21T12:30:16;100356.00;;;11.62;100.00
12949;BME280;6539;49.476;8.484;2023-11-21T12:33:05;100354.22;;;11.78;100.00
12949;BME280;6539;49.476;8.484;2023-11-21T12:35:54;100355.06;;;11.75;100.00
12949;BME280;6539;49.476;8.484;2023-11-21T12:38:40;100361.22;;;11.83;100.00
12949;BME280;6539;49.476;8.484;2023-11-21T12:41:29;100357.13;;;11.68;100.00
12949;BME280;6539;49.476;8.484;2023-11-21T12:44:16;100355.03;;;11.45;100.00
12949;BME280;6539;49.476;8.484;2023-11-21T12:47:02;100356.09;;;11.55;100.00
12949;BME280;6539;49.476;8.484;2023-11-21T12:49:49;100371.72;;;11.61;100.00
12949;BME280;6539;49.476;8.484;2023-11-21T12:52:35;100381.06;;;11.71;98.77
12949;BME280;6539;49.476;8.484;2023-11-21T12:55:25;100377.66;;;11.56;100.00
12949;BME280;6539;49.476;8.484;2023-11-21T12:58:11;100375.59;;;11.64;99.87
12949;BME280;6539;49.476;8.484;2023-11-21T13:00:59;100378.03;;;11.58;99.39
12949;BME280;6539;49.476;8.484;2023-11-21T13:03:50;100387.19;;;11.48;99.69
12949;BME280;6539;49.476;8.484;2023-11-21T13:06:39;100387.91;;;11.56;99.91
12949;BME280;6539;49.476;8.484;2023-11-21T13:09:27;100380.41;;;11.56;97.93
12949;BME280;6539;49.476;8.484;2023-11-21T13:12:13;100382.75;;;11.58;97.95
12949;BME280;6539;49.476;8.484;2023-11-21T13:15:08;100385.31;;;11.75;96.21
12949;BME280;6539;49.476;8.484;2023-11-21T13:17:57;100389.69;;;11.69;96.34
12949;BME280;6539;49.476;8.484;2023-11-21T13:20:44;100392.91;;;11.61;96.32
12949;BME280;6539;49.476;8.484;2023-11-21T13:23:35;100402.91;;;11.47;95.45
12949;BME280;6539;49.476;8.484;2023-11-21T13:26:24;100405.44;;;11.65;94.13
12949;BME280;6539;49.476;8.484;2023-11-21T13:29:12;100399.53;;;11.70;95.08
12949;BME280;6539;49.476;8.484;2023-11-21T13:32:03;100406.47;;;11.78;93.53
12949;BME280;6539;49.476;8.484;2023-11-21T13:34:54;100402.44;;;11.86;92.88
12949;BME280;6539;49.476;8.484;2023-11-21T13:37:41;100415.81;;;11.84;93.35
12949;BME280;6539;49.476;8.484;2023-11-21T13:40:30;100413.28;;;11.70;93.68
12949;BME280;6539;49.476;8.484;2023-11-21T13:43:23;100415.16;;;11.77;93.23
12949;BME280;6539;49.476;8.484;2023-11-21T13:46:29;100409.56;;;11.84;91.95
12949;BME280;6539;49.476;8.484;2023-11-21T13:49:22;100411.91;;;11.82;91.58
12949;BME280;6539;49.476;8.484;2023-11-21T13:52:08;100425.38;;;11.76;93.31
12949;BME280;6539;49.476;8.484;2023-11-21T13:55:01;100429.41;;;11.68;92.68
12949;BME280;6539;49.476;8.484;2023-11-21T13:57:54;100427.25;;;11.49;92.55
12949;BME280;6539;49.476;8.484;2023-11-21T14:00:40;100431.53;;;11.50;92.98
12949;BME280;6539;49.476;8.484;2023-11-21T14:03:44;100439.00;;;11.49;92.34
12949;BME280;6539;49.476;8.484;2023-11-21T14:06:37;100437.09;;;11.46;93.43
12949;BME280;6539;49.476;8.484;2023-11-21T14:09:33;100427.94;;;11.57;91.37
12949;BME280;6539;49.476;8.484;2023-11-21T14:16:30;100442.53;;;11.50;92.39
12949;BME280;6539;49.476;8.484;2023-11-21T14:19:21;100454.81;;;11.42;92.57
12949;BME280;6539;49.476;8.484;2023-11-21T14:22:10;100452.13;;;11.35;93.49
12949;BME280;6539;49.476;8.484;2023-11-21T14:24:56;100453.84;;;11.22;94.15
12949;BME280;6539;49.476;8.484;2023-11-21T14:27:48;100452.66;;;11.23;94.10
12949;BME280;6539;49.476;8.484;2023-11-21T14:30:34;100465.66;;;11.19;95.68
12949;BME280;6539;49.476;8.484;2023-11-21T14:33:22;100461.75;;;11.16;95.07
12949;BME280;6539;49.476;8.484;2023-11-21T14:36:11;100468.41;;;11.19;94.38
12949;BME280;6539;49.476;8.484;2023-11-21T14:38:59;100467.66;;;11.15;95.99
12949;BME280;6539;49.476;8.484;2023-11-21T14:41:45;100466.41;;;11.19;94.85
12949;BME280;6539;49.476;8.484;2023-11-21T14:44:34;100469.63;;;11.14;95.92
12949;BME280;6539;49.476;8.484;2023-11-21T14:47:24;100475.13;;;11.14;96.42
12949;BME280;6539;49.476;8.484;2023-11-21T14:50:12;100483.59;;;11.30;95.02
12949;BME280;6539;49.476;8.484;2023-11-21T14:53:22;100483.22;;;11.28;93.31
12949;BME280;6539;49.476;8.484;2023-11-21T14:56:28;100484.88;;;11.19;93.65
12949;BME280;6539;49.476;8.484;2023-11-21T14:59:21;100484.47;;;11.20;93.74
12949;BME280;6539;49.476;8.484;2023-11-21T15:02:07;100490.34;;;11.22;94.22
12949;BME280;6539;49.476;8.484;2023-11-21T15:05:07;100495.41;;;11.27;91.92
12949;BME280;6539;49.476;8.484;2023-11-21T15:07:55;100512.38;;;11.19;93.76
12949;BME280;6539;49.476;8.484;2023-11-21T15:10:48;100508.41;;;11.20;92.63
12949;BME280;6539;49.476;8.484;2023-11-21T15:13:39;100515.16;;;11.12;93.01